Time;durP1;ratioP1;P1;durP2;ratioP2;P2;SDS_P1;SDS_P2;PMS_P1;PMS_P2;Temp;Humidity;BMP_temperature;BMP_pressure;BME280_temperature;BME280_humidity;BME280_pressure;Samples;Min_cycle;Max_cycle;Signal;HPM_P1;HPM_P2
2023/10/02 00:06:47;;;;;;;18.50;7.03;;;;;;;11.42;100.00;98448.41;18555889;32;20200;-59
2023/10/02 00:17:03;;;;;;;19.55;6.35;;;;;;;11.41;100.00;98457.59;18570139;32;20107;-58
2023/10/02 00:27:09;;;;;;;12.25;6.65;;;;;;;11.35;100.00;98464.88;18555096;32;20057;-59
2023/10/02 00:37:15;;;;;;;13.57;6.50;;;;;;;11.24;100.00;98463.13;18568862;32;20067;-58
2023/10/02 00:47:36;;;;;;;17.30;6.57;;;;;;;11.15;100.00;98452.72;18568183;32;20365;-58
2023/10/02 00:57:45;;;;;;;16.73;6.35;;;;;;;11.05;100.00;98458.03;18553580;32;20060;-59
2023/10/02 01:07:53;;;;;;;17.77;6.65;;;;;;;10.90;100.00;98455.19;18566439;32;20064;-59
2023/10/02 01:18:21;;;;;;;12.60;6.30;;;;;;;10.94;100.00;98448.19;18565963;32;20049;-58
2023/10/02 01:28:25;;;;;;;12.32;6.20;;;;;;;10.74;100.00;98436.03;18565235;32;20112;-59
2023/10/02 01:38:30;;;;;;;14.20;7.12;;;;;;;10.65;100.00;98430.25;18552144;32;20071;-58
2023/10/02 01:48:37;;;;;;;13.82;6.18;;;;;;;10.56;100.00;98439.88;18550471;32;20048;-58
2023/10/02 01:58:42;;;;;;;18.80;7.43;;;;;;;10.55;100.00;98434.72;18563868;32;20045;-59
2023/10/02 02:08:44;;;;;;;19.13;7.17;;;;;;;10.68;100.00;98428.94;18548543;32;20140;-59
2023/10/02 02:18:48;;;;;;;16.75;7.00;;;;;;;10.78;100.00;98423.63;18548630;32;20057;-58
2023/10/02 02:28:51;;;;;;;13.68;7.25;;;;;;;10.77;100.00;98430.13;18561297;32;20394;-59
2023/10/02 02:49:32;;;;;;;19.40;7.47;;;;;;;10.65;100.00;98427.56;18421912;32;20061;-59
2023/10/02 02:59:38;;;;;;;18.40;7.12;;;;;;;10.72;100.00;98418.44;18421867;32;20065;-59
2023/10/02 03:09:42;;;;;;;19.25;6.82;;;;;;;10.74;100.00;98422.50;18421298;32;20087;-58
2023/10/02 03:19:51;;;;;;;15.48;5.93;;;;;;;10.69;100.00;98419.75;18457718;32;20045;-59
2023/10/02 03:30:35;;;;;;;16.40;6.68;;;;;;;10.56;100.00;98409.31;18559643;32;20395;-59
2023/10/02 03:40:59;;;;;;;17.70;8.05;;;;;;;10.51;100.00;98410.88;18571337;32;20356;-59
2023/10/02 03:51:09;;;;;;;16.80;7.50;;;;;;;10.54;100.00;98414.16;18571744;32;20057;-58
2023/10/02 04:01:15;;;;;;;16.95;7.30;;;;;;;10.49;100.00;98414.91;18571062;31;20433;-59
2023/10/02 04:11:21;;;;;;;16.33;6.60;;;;;;;10.44;100.00;98404.03;18570175;31;20044;-58
2023/10/02 04:21:24;;;;;;;19.65;7.87;;;;;;;10.53;100.00;98404.41;18556532;32;20049;-58
2023/10/02 04:31:30;;;;;;;18.37;8.27;;;;;;;10.44;100.00;98401.31;18569161;32;20400;-58
2023/10/02 04:42:05;;;;;;;26.67;9.93;;;;;;;10.26;100.00;98403.22;18568752;32;20045;-58
2023/10/02 04:51:56;;;;;;;21.42;9.07;;;;;;;10.33;100.00;98419.25;18567008;32;20071;-58
2023/10/02 05:02:20;;;;;;;18.08;8.07;;;;;;;10.18;100.00;98417.16;18567129;32;20367;-61
2023/10/02 05:12:28;;;;;;;30.40;10.80;;;;;;;10.01;100.00;98422.59;18566983;31;20096;-61
2023/10/02 05:22:58;;;;;;;24.80;10.33;;;;;;;10.10;100.00;98423.00;18565891;32;20094;-61
2023/10/02 05:33:37;;;;;;;26.53;10.07;;;;;;;10.03;100.00;98430.47;18565661;32;20048;-61
2023/10/02 05:43:55;;;;;;;20.23;8.83;;;;;;;10.05;100.00;98439.97;18564445;32;20135;-61
2023/10/02 05:54:01;;;;;;;22.27;9.20;;;;;;;10.00;100.00;98446.13;18564063;32;20372;-61
2023/10/02 06:04:05;;;;;;;24.60;10.45;;;;;;;10.02;100.00;98456.66;18563438;32;20045;-60
2023/10/02 06:14:15;;;;;;;23.10;9.38;;;;;;;9.99;100.00;98452.56;18562478;32;20468;-60
2023/10/02 06:24:32;;;;;;;20.10;9.15;;;;;;;10.11;100.00;98465.16;18562421;32;20068;-61
2023/10/02 06:35:01;;;;;;;22.90;10.20;;;;;;;10.25;100.00;98469.19;18561626;32;20109;-61
2023/10/02 06:45:29;;;;;;;18.25;9.90;;;;;;;10.43;100.00;98481.63;18550296;32;20060;-58
2023/10/02 06:55:32;;;;;;;20.80;10.18;;;;;;;10.65;100.00;98494.38;18560738;32;20074;-58
2023/10/02 07:05:35;;;;;;;25.95;10.88;;;;;;;10.92;100.00;98488.19;18560125;32;20081;-59
2023/10/02 07:15:38;;;;;;;24.90;11.27;;;;;;;11.22;100.00;98497.75;18580845;32;20056;-58
2023/10/02 07:25:48;;;;;;;23.08;10.48;;;;;;;11.56;100.00;98497.56;18567476;32;20045;-59
2023/10/02 07:35:55;;;;;;;26.05;11.68;;;;;;;11.85;100.00;98493.50;18581291;32;20072;-59
2023/10/02 07:46:19;;;;;;;33.70;14.23;;;;;;;12.25;100.00;98499.53;18580836;32;20093;-59
2023/10/02 07:56:23;;;;;;;38.28;15.68;;;;;;;12.68;100.00;98499.53;18580703;32;20057;-59
2023/10/02 08:16:58;;;;;;;28.42;13.48;;;;;;;13.76;100.00;98501.78;18566009;32;19970;-59
2023/10/02 08:26:56;;;;;;;33.75;13.20;;;;;;;14.37;100.00;98515.34;18555813;32;20342;-59
2023/10/02 08:37:07;;;;;;;27.23;13.73;;;;;;;15.04;100.00;98506.25;18554618;31;20398;-59
2023/10/02 08:47:12;;;;;;;30.05;13.75;;;;;;;15.38;100.00;98502.81;18568198;32;20065;-59
2023/10/02 08:57:18;;;;;;;27.60;14.23;;;;;;;15.93;100.00;98500.03;18567791;32;20477;-59
2023/10/02 09:07:23;;;;;;;31.92;14.57;;;;;;;16.29;100.00;98498.91;18567246;32;20048;-59
2023/10/02 09:17:44;;;;;;;30.92;13.95;;;;;;;16.76;100.00;98494.63;18566454;32;20045;-59
2023/10/02 09:27:57;;;;;;;30.88;14.40;;;;;;;17.22;100.00;98491.31;18565637;31;20075;-59
2023/10/02 09:38:04;;;;;;;32.77;14.43;;;;;;;17.47;100.00;98475.69;18551580;32;20365;-59
2023/10/02 09:48:46;;;;;;;31.37;14.35;;;;;;;17.91;100.00;98468.19;18564912;32;20079;-60
2023/10/02 09:58:47;;;;;;;33.08;13.93;;;;;;;18.25;100.00;98459.72;18563377;32;20079;-60
2023/10/02 10:19:26;;;;;;;29.63;13.27;;;;;;;19.12;100.00;98429.00;18548286;32;20069;-59
2023/10/02 10:30:10;;;;;;;29.77;14.20;;;;;;;19.38;100.00;98412.75;18561697;32;20053;-59
2023/10/02 10:40:50;;;;;;;;;;;;;;;19.74;100.00;98400.13;18562143;32;20048;-59
2023/10/02 10:50:59;;;;;;;30.85;15.15;;;;;;;19.92;100.00;98398.31;18544809;32;19959;-59
2023/10/02 11:01:13;;;;;;;28.73;14.75;;;;;;;20.13;100.00;98390.34;18560507;32;20063;-59
2023/10/02 11:11:21;;;;;;;;;;;;;;;20.39;100.00;98386.91;18560663;32;20134;-59
2023/10/02 11:21:24;;;;;;;30.60;14.55;;;;;;;20.68;100.00;98369.94;18560118;32;20271;-60
2023/10/02 11:31:30;;;;;;;33.83;14.80;;;;;;;20.93;100.00;98362.84;18545644;32;20050;-59
2023/10/02 11:41:37;;;;;;;33.67;16.70;;;;;;;21.85;100.00;98351.97;18545050;32;20052;-60
2023/10/02 11:51:43;;;;;;;33.97;17.58;;;;;;;22.46;100.00;98344.31;18559068;32;20037;-59
2023/10/02 12:01:48;;;;;;;41.63;17.02;;;;;;;22.98;100.00;98325.81;18570137;32;20067;-60
2023/10/02 12:11:51;;;;;;;42.70;20.70;;;;;;;23.48;100.00;98311.09;18569717;31;20052;-60
2023/10/02 12:21:55;;;;;;;41.65;19.70;;;;;;;24.03;100.00;98306.28;18570018;32;20053;-60
2023/10/02 12:32:10;;;;;;;38.20;18.70;;;;;;;24.60;100.00;98291.88;18569239;32;20116;-59
2023/10/02 12:42:15;;;;;;;44.75;20.65;;;;;;;25.02;95.22;98274.97;18568410;32;20069;-60
2023/10/02 12:52:19;;;;;;;38.50;19.50;;;;;;;25.45;100.00;98254.06;18567834;32;20048;-60
2023/10/02 13:02:23;;;;;;;34.80;18.83;;;;;;;25.18;100.00;98250.16;18567685;32;20068;-60
2023/10/02 13:12:26;;;;;;;36.42;17.40;;;;;;;24.93;95.03;98230.88;18565897;31;20090;-60
2023/10/02 13:22:30;;;;;;;25.90;13.32;;;;;;;24.89;75.79;98218.91;18566108;32;20101;-60
2023/10/02 13:32:34;;;;;;;25.70;13.45;;;;;;;24.57;86.65;98210.47;18565727;32;20085;-60
2023/10/02 13:42:37;;;;;;;26.87;13.32;;;;;;;24.72;75.74;98199.84;18564783;32;20052;-60
2023/10/02 13:52:41;;;;;;;31.00;15.75;;;;;;;24.80;73.10;98196.13;18549903;32;20089;-60
2023/10/02 14:02:45;;;;;;;29.55;16.40;;;;;;;24.85;75.88;98193.13;18563444;31;20063;-60
2023/10/02 14:12:50;;;;;;;43.42;17.98;;;;;;;24.76;72.64;98178.63;18496531;32;20086;-60
2023/10/02 14:22:53;;;;;;;38.00;18.35;;;;;;;24.76;78.59;98162.03;18497371;32;20079;-60
2023/10/02 14:33:00;;;;;;;35.28;17.52;;;;;;;24.69;89.67;98157.94;18496784;32;20385;-60
2023/10/02 14:43:04;;;;;;;39.95;17.40;;;;;;;24.60;88.85;98160.00;18496542;32;20484;-60
2023/10/02 14:53:11;;;;;;;37.35;17.12;;;;;;;24.52;92.01;98152.66;18495910;32;20075;-60
2023/10/02 15:03:16;;;;;;;39.13;17.35;;;;;;;24.47;94.55;98139.06;18494365;32;20391;-60
2023/10/02 15:13:20;;;;;;;36.08;18.20;;;;;;;23.92;100.00;98136.66;18550730;32;20041;-60
2023/10/02 15:23:23;;;;;;;39.08;19.90;;;;;;;23.72;100.00;98132.06;18559672;32;20099;-60
2023/10/02 15:33:35;;;;;;;36.13;18.40;;;;;;;23.42;100.00;98112.97;18567348;32;20083;-60
2023/10/02 15:43:40;;;;;;;;;;;;;;;23.06;100.00;98114.50;18572519;32;20049;-60
2023/10/02 15:53:45;;;;;;;43.20;19.40;;;;;;;22.68;100.00;98102.59;18572060;31;19976;-59
2023/10/02 16:03:48;;;;;;;38.60;18.52;;;;;;;22.39;100.00;98098.00;18571087;32;20053;-59
2023/10/02 16:13:52;;;;;;;42.70;18.02;;;;;;;22.00;100.00;98101.66;18570227;32;20064;-59
2023/10/02 16:23:55;;;;;;;41.40;19.10;;;;;;;21.69;100.00;98090.22;18555376;32;20072;-60
2023/10/02 16:33:58;;;;;;;40.28;19.98;;;;;;;21.23;100.00;98079.75;18569266;32;20086;-59
2023/10/02 16:44:03;;;;;;;39.88;19.23;;;;;;;20.96;100.00;98087.28;18567420;32;20470;-60
2023/10/02 16:54:11;;;;;;;48.55;19.05;;;;;;;20.69;100.00;98093.19;18568112;32;20375;-59
2023/10/02 17:04:14;;;;;;;48.20;19.67;;;;;;;20.34;100.00;98095.94;18567398;32;20421;-59
2023/10/02 17:14:17;;;;;;;;;;;;;;;19.95;100.00;98088.37;18566852;32;20385;-60
2023/10/02 17:24:20;;;;;;;38.95;17.52;;;;;;;19.48;100.00;98079.84;18566956;32;19948;-60
2023/10/02 17:34:23;;;;;;;36.25;17.30;;;;;;;19.04;100.00;98076.16;18551587;32;20075;-59
2023/10/02 17:44:28;;;;;;;35.93;17.13;;;;;;;18.68;100.00;98079.78;18565187;32;20056;-59
2023/10/02 17:54:39;;;;;;;38.92;18.12;;;;;;;18.34;100.00;98081.22;18564021;32;20063;-59
2023/10/02 18:04:54;;;;;;;35.78;16.85;;;;;;;18.07;100.00;98080.19;18524894;32;20526;-59
2023/10/02 18:15:20;;;;;;;35.38;16.87;;;;;;;17.76;100.00;98073.44;18432265;32;20374;-59
2023/10/02 18:25:30;;;;;;;38.85;16.45;;;;;;;17.59;100.00;98078.75;18433162;32;20045;-59
2023/10/02 18:35:34;;;;;;;32.37;15.50;;;;;;;17.38;100.00;98078.38;18432290;32;20053;-59
2023/10/02 18:45:37;;;;;;;30.62;14.52;;;;;;;17.19;100.00;98092.94;18432141;32;20157;-59
2023/10/02 18:55:46;;;;;;;34.77;14.93;;;;;;;16.96;100.00;98096.66;18430584;32;20400;-59
2023/10/02 19:06:14;;;;;;;37.67;15.25;;;;;;;16.76;100.00;98095.91;18446622;32;20445;-58
2023/10/02 19:16:42;;;;;;;32.03;13.82;;;;;;;16.50;100.00;98084.59;18560167;32;20076;-59
2023/10/02 19:26:46;;;;;;;32.05;14.68;;;;;;;16.32;100.00;98102.63;18560035;32;20062;-59
2023/10/02 19:36:49;;;;;;;30.62;14.65;;;;;;;16.19;100.00;98109.66;18559517;31;20065;-59
2023/10/02 19:46:52;;;;;;;35.97;14.35;;;;;;;16.00;100.00;98106.94;18559228;32;20072;-59
2023/10/02 19:56:55;;;;;;;27.60;14.18;;;;;;;15.91;100.00;98106.78;18558941;32;20369;-59
2023/10/02 20:07:00;;;;;;;29.17;13.60;;;;;;;15.76;100.00;98096.88;18558316;32;20076;-59
2023/10/02 20:17:05;;;;;;;33.17;14.32;;;;;;;15.68;100.00;98101.06;18562969;32;20061;-59
2023/10/02 20:27:08;;;;;;;30.80;14.95;;;;;;;15.47;100.00;98092.34;18556148;32;20486;-59
2023/10/02 20:37:10;;;;;;;29.20;13.48;;;;;;;15.36;100.00;98093.53;18569048;32;20073;-59
2023/10/02 20:47:13;;;;;;;32.00;14.27;;;;;;;15.24;100.00;98069.47;18554515;32;20053;-59
2023/10/02 20:57:17;;;;;;;38.55;16.37;;;;;;;15.06;100.00;98073.72;18568038;32;20056;-59
2023/10/02 21:07:25;;;;;;;32.70;15.20;;;;;;;15.04;100.00;98086.84;18566585;32;20048;-59
2023/10/02 21:17:46;;;;;;;29.45;14.63;;;;;;;14.91;100.00;98083.69;18554574;32;20471;-59
2023/10/02 21:28:05;;;;;;;29.23;14.07;;;;;;;14.88;100.00;98084.28;18564944;32;20478;-59
2023/10/02 21:38:15;;;;;;;28.80;13.18;;;;;;;14.63;100.00;98081.81;18565371;32;20453;-59
2023/10/02 21:48:18;;;;;;;28.92;13.85;;;;;;;14.44;100.00;98068.84;18564859;32;20076;-59
2023/10/02 21:58:21;;;;;;;26.75;13.35;;;;;;;14.31;100.00;98083.94;18549839;32;20061;-59
2023/10/02 22:08:23;;;;;;;30.60;12.00;;;;;;;14.21;100.00;98086.72;18549011;32;20052;-59
2023/10/02 22:18:26;;;;;;;28.38;12.68;;;;;;;14.08;100.00;98093.63;18563404;31;20061;-59
2023/10/02 22:28:29;;;;;;;23.38;11.82;;;;;;;13.99;100.00;98082.53;18562368;32;20064;-59
2023/10/02 22:38:31;;;;;;;27.75;13.25;;;;;;;13.75;100.00;98087.84;18547540;32;20401;-59
2023/10/02 22:48:34;;;;;;;27.13;12.43;;;;;;;13.77;100.00;98085.66;18561383;32;20479;-59
2023/10/02 22:58:37;;;;;;;31.87;12.98;;;;;;;13.71;100.00;98073.19;18560830;32;20072;-59
2023/10/02 23:08:40;;;;;;;26.15;12.80;;;;;;;13.67;100.00;98066.69;18532847;32;20108;-59
2023/10/02 23:18:43;;;;;;;28.87;12.97;;;;;;;13.48;100.00;98067.31;18559991;32;20078;-59
2023/10/02 23:28:45;;;;;;;20.00;11.02;;;;;;;13.48;100.00;98061.09;18559978;32;20048;-59
2023/10/02 23:38:48;;;;;;;28.20;12.18;;;;;;;13.39;100.00;98055.44;18559726;32;20152;-59
2023/10/02 23:48:55;;;;;;;25.62;12.13;;;;;;;13.23;100.00;98041.06;18559607;32;20064;-59
2023/10/02 23:58:57;;;;;;;30.02;14.32;;;;;;;13.18;100.00;98041.91;18571888;32;20095;-59
